createdAt,value
2019-06-02T00:00:28.479Z,99.99
2019-06-02T00:01:28.219Z,99.99
2019-06-02T00:02:28.061Z,99.99
2019-06-02T00:03:28.244Z,99.99
2019-06-02T00:04:28.051Z,99.99
2019-06-02T00:05:28.469Z,99.99
2019-06-02T00:06:28.492Z,99.99
2019-06-02T00:07:28.116Z,99.99
2019-06-02T00:08:28.158Z,99.99
2019-06-02T00:09:28.150Z,99.99
2019-06-02T00:10:26.958Z,99.99
2019-06-02T00:11:26.934Z,99.99
2019-06-02T00:12:26.912Z,99.99
2019-06-02T00:13:26.885Z,99.99
2019-06-02T00:14:32.372Z,99.99
2019-06-02T00:15:26.840Z,99.99
2019-06-02T00:16:26.925Z,99.99
2019-06-02T00:17:27.042Z,99.99
2019-06-02T00:18:26.958Z,99.99
2019-06-02T00:19:27.070Z,99.99
2019-06-02T00:20:27.055Z,99.99
2019-06-02T00:21:26.700Z,99.99
2019-06-02T00:22:27.229Z,99.99
2019-06-02T00:23:27.160Z,99.99
2019-06-02T00:24:27.631Z,99.99
2019-06-02T00:25:27.221Z,99.99
2019-06-02T00:26:27.819Z,99.99
2019-06-02T00:27:26.561Z,99.99
2019-06-02T00:28:27.719Z,99.99
2019-06-02T00:29:27.948Z,99.99
2019-06-02T00:30:27.626Z,99.99
2019-06-02T00:31:27.557Z,99.99
2019-06-02T00:32:27.674Z,99.99
2019-06-02T00:33:26.421Z,99.99
2019-06-02T00:34:26.402Z,99.99
2019-06-02T00:35:26.375Z,99.99
2019-06-02T00:36:26.354Z,99.99
2019-06-02T00:37:26.325Z,99.99
2019-06-02T00:38:26.415Z,99.99
2019-06-02T00:39:27.279Z,99.99
2019-06-02T00:40:26.524Z,99.99
2019-06-02T00:41:26.648Z,99.99
2019-06-02T00:42:26.551Z,99.99
2019-06-02T00:43:26.598Z,99.99
2019-06-02T00:44:27.079Z,99.99
2019-06-02T00:45:26.797Z,99.99
2019-06-02T00:46:26.923Z,99.99
2019-06-02T00:47:27.206Z,99.99
2019-06-02T00:48:27.278Z,99.99
2019-06-02T00:49:27.121Z,99.99
2019-06-02T00:50:27.260Z,99.99
2019-06-02T00:51:27.327Z,99.99
2019-06-02T00:52:25.977Z,99.99
2019-06-02T00:53:25.952Z,99.99
2019-06-02T00:54:25.931Z,99.99
2019-06-02T00:55:25.907Z,99.99
2019-06-02T00:56:25.885Z,99.99
2019-06-02T00:57:25.862Z,99.99
2019-06-02T00:58:25.836Z,99.99
2019-06-02T00:59:25.820Z,99.99
2019-06-02T01:00:25.792Z,99.99
2019-06-02T01:01:25.815Z,99.99
2019-06-02T01:02:25.751Z,99.99
2019-06-02T01:03:25.722Z,99.99
2019-06-02T01:04:25.716Z,99.99
2019-06-02T01:05:25.674Z,99.99
2019-06-02T01:06:25.650Z,99.99
2019-06-02T01:07:25.628Z,99.99
2019-06-02T01:08:25.603Z,99.99
2019-06-02T01:09:25.596Z,99.99
2019-06-02T01:10:25.557Z,99.99
2019-06-02T01:11:25.536Z,99.99
2019-06-02T01:12:25.513Z,99.99
2019-06-02T01:13:25.491Z,99.99
2019-06-02T01:14:25.465Z,99.99
2019-06-02T01:15:25.440Z,99.99
2019-06-02T01:16:25.424Z,99.99
2019-06-02T01:17:25.395Z,99.99
2019-06-02T01:18:25.373Z,99.99
2019-06-02T01:19:25.348Z,99.99
2019-06-02T01:20:25.325Z,99.99
2019-06-02T01:21:25.300Z,99.99
2019-06-02T01:22:25.275Z,99.99
2019-06-02T01:23:25.254Z,99.99
2019-06-02T01:24:25.236Z,99.99
2019-06-02T01:25:25.205Z,99.99
2019-06-02T01:26:25.183Z,99.99
2019-06-02T01:27:25.159Z,99.99
2019-06-02T01:28:25.135Z,99.99
2019-06-02T01:29:25.115Z,99.99
2019-06-02T01:30:25.088Z,99.99
2019-06-02T01:31:25.064Z,99.99
2019-06-02T01:32:25.042Z,99.99
2019-06-02T01:33:25.017Z,99.99
2019-06-02T01:34:24.995Z,99.99
2019-06-02T01:35:24.969Z,99.99
2019-06-02T01:36:24.946Z,99.99
2019-06-02T01:37:24.921Z,99.99
2019-06-02T01:38:24.896Z,99.99
2019-06-02T01:39:24.947Z,99.99
2019-06-02T01:40:24.849Z,99.99
2019-06-02T01:41:24.826Z,99.99
2019-06-02T01:42:24.802Z,99.99
2019-06-02T01:43:24.781Z,99.99
2019-06-02T01:44:24.759Z,99.99
2019-06-02T01:45:29.190Z,99.99
2019-06-02T01:46:24.707Z,99.99
2019-06-02T01:47:24.683Z,99.99
2019-06-02T01:48:24.659Z,99.99
2019-06-02T01:49:24.634Z,99.99
2019-06-02T01:50:24.612Z,99.99
2019-06-02T01:51:24.587Z,99.99
2019-06-02T01:52:24.566Z,99.99
2019-06-02T01:53:24.540Z,99.99
2019-06-02T01:54:24.523Z,99.99
2019-06-02T01:55:24.490Z,99.99
2019-06-02T01:56:24.483Z,99.99
2019-06-02T01:57:24.442Z,99.99
2019-06-02T01:58:24.419Z,99.99
2019-06-02T01:59:24.396Z,99.99
2019-06-02T02:00:24.375Z,99.99
2019-06-02T02:01:24.347Z,99.99
2019-06-02T02:02:24.322Z,99.99
2019-06-02T02:03:24.298Z,99.99
2019-06-02T02:04:24.290Z,99.99
2019-06-02T02:05:24.251Z,99.99
2019-06-02T02:06:24.226Z,99.99
2019-06-02T02:07:24.202Z,99.99
2019-06-02T02:08:24.180Z,99.99
2019-06-02T02:09:24.155Z,99.99
2019-06-02T02:10:24.130Z,99.99
2019-06-02T02:11:24.109Z,99.99
2019-06-02T02:12:24.084Z,99.99
2019-06-02T02:13:24.057Z,99.99
2019-06-02T02:14:24.044Z,99.99
2019-06-02T02:15:24.009Z,99.99
2019-06-02T02:16:23.984Z,99.99
2019-06-02T02:17:23.960Z,99.99
2019-06-02T02:18:23.934Z,99.99
2019-06-02T02:19:23.910Z,99.99
2019-06-02T02:20:23.889Z,99.99
2019-06-02T02:21:23.860Z,99.99
2019-06-02T02:22:23.838Z,99.99
2019-06-02T02:23:23.813Z,99.99
2019-06-02T02:24:23.790Z,99.99
2019-06-02T02:25:23.764Z,99.99
2019-06-02T02:26:23.741Z,99.99
2019-06-02T02:27:23.716Z,99.99
2019-06-02T02:28:23.691Z,99.99
2019-06-02T02:29:23.667Z,99.99
2019-06-02T02:30:23.650Z,99.99
2019-06-02T02:31:23.629Z,99.99
2019-06-02T02:32:23.599Z,99.99
2019-06-02T02:33:23.568Z,99.99
2019-06-02T02:34:23.554Z,99.99
2019-06-02T02:35:23.524Z,99.99
2019-06-02T02:36:23.501Z,99.99
2019-06-02T02:37:23.471Z,99.99
2019-06-02T02:38:23.448Z,99.99
2019-06-02T02:39:23.424Z,99.99
2019-06-02T02:40:23.397Z,99.99
2019-06-02T02:41:23.370Z,99.99
2019-06-02T02:42:23.346Z,99.99
2019-06-02T02:43:23.324Z,99.99
2019-06-02T02:44:23.311Z,99.99
2019-06-02T02:45:23.275Z,99.99
2019-06-02T02:46:23.251Z,99.99
2019-06-02T02:47:23.230Z,99.99
2019-06-02T02:48:23.206Z,99.99
2019-06-02T02:49:23.182Z,99.99
2019-06-02T02:50:23.152Z,99.99
2019-06-02T02:51:23.126Z,99.99
2019-06-02T02:52:23.103Z,99.99
2019-06-02T02:53:23.080Z,99.99
2019-06-02T02:54:23.069Z,99.99
2019-06-02T02:55:23.030Z,99.99
2019-06-02T02:56:23.006Z,99.99
2019-06-02T02:57:22.979Z,99.99
2019-06-02T02:58:22.954Z,99.99
2019-06-02T02:59:22.927Z,99.99
2019-06-02T03:00:22.906Z,99.99
2019-06-02T03:01:22.877Z,99.99
2019-06-02T03:02:22.856Z,99.99
2019-06-02T03:03:22.836Z,99.99
2019-06-02T03:04:22.805Z,99.99
2019-06-02T03:05:22.783Z,99.99
2019-06-02T03:06:22.755Z,99.99
2019-06-02T03:07:22.737Z,99.99
2019-06-02T03:08:22.762Z,99.99
2019-06-02T03:09:22.690Z,99.99
2019-06-02T03:10:22.673Z,99.99
2019-06-02T03:11:22.637Z,99.99
2019-06-02T03:12:22.609Z,99.99
2019-06-02T03:13:22.584Z,99.99
2019-06-02T03:14:22.560Z,99.99
2019-06-02T03:15:22.533Z,99.99
2019-06-02T03:16:32.276Z,99.99
2019-06-02T03:17:22.486Z,99.99
2019-06-02T03:18:22.461Z,99.99
2019-06-02T03:19:22.439Z,99.99
2019-06-02T03:20:22.492Z,99.99
2019-06-02T03:21:22.386Z,99.99
2019-06-02T03:22:22.360Z,99.99
2019-06-02T03:23:22.337Z,99.99
2019-06-02T03:24:22.316Z,99.99
2019-06-02T03:25:22.287Z,99.99
2019-06-02T03:26:22.267Z,99.99
2019-06-02T03:27:22.238Z,99.99
2019-06-02T03:28:22.215Z,99.99
2019-06-02T03:29:22.190Z,99.99
2019-06-02T03:30:22.185Z,99.99
2019-06-02T03:31:22.153Z,99.99
2019-06-02T03:32:22.125Z,99.99
2019-06-02T03:33:22.093Z,99.99
2019-06-02T03:34:22.073Z,99.99
2019-06-02T03:35:22.045Z,99.99
2019-06-02T03:36:22.021Z,99.99
2019-06-02T03:37:21.994Z,99.99
2019-06-02T03:38:21.972Z,99.99
2019-06-02T03:39:21.948Z,99.99
2019-06-02T03:40:21.923Z,99.99
2019-06-02T03:41:21.897Z,99.99
2019-06-02T03:42:21.877Z,99.99
2019-06-02T03:43:21.849Z,99.99
2019-06-02T03:44:21.830Z,99.99
2019-06-02T03:45:21.801Z,99.99
2019-06-02T03:46:21.782Z,99.99
2019-06-02T03:47:21.753Z,99.99
2019-06-02T03:48:21.734Z,99.99
2019-06-02T03:49:21.707Z,99.99
2019-06-02T03:50:21.685Z,99.99
2019-06-02T03:51:21.662Z,99.99
2019-06-02T03:52:21.634Z,99.99
2019-06-02T03:53:21.611Z,99.99
2019-06-02T03:54:21.600Z,99.99
2019-06-02T03:55:21.569Z,99.99
2019-06-02T03:56:21.538Z,99.99
2019-06-02T03:57:21.515Z,99.99
2019-06-02T03:58:21.493Z,99.99
2019-06-02T03:59:21.467Z,99.99
2019-06-02T04:00:21.445Z,99.99
2019-06-02T04:01:21.420Z,99.99
2019-06-02T04:02:21.400Z,99.99
2019-06-02T04:03:21.371Z,99.99
2019-06-02T04:04:21.349Z,99.99
2019-06-02T04:05:21.326Z,99.99
2019-06-02T04:06:21.301Z,99.99
2019-06-02T04:07:21.277Z,99.99
2019-06-02T04:08:21.254Z,99.99
2019-06-02T04:09:21.231Z,99.99
2019-06-02T04:10:21.206Z,99.99
2019-06-02T04:11:21.182Z,99.99
2019-06-02T04:12:21.161Z,99.99
2019-06-02T04:13:21.134Z,99.99
2019-06-02T04:14:21.113Z,99.99
2019-06-02T04:15:21.091Z,99.99
2019-06-02T04:16:21.075Z,99.99
2019-06-02T04:17:21.049Z,99.99
2019-06-02T04:18:21.021Z,99.99
2019-06-02T04:19:20.996Z,99.99
2019-06-02T04:20:21.017Z,99.99
2019-06-02T04:21:21.019Z,99.99
2019-06-02T04:22:20.925Z,99.99
2019-06-02T04:23:20.919Z,99.99
2019-06-02T04:24:20.883Z,99.99
2019-06-02T04:25:20.852Z,99.99
2019-06-02T04:26:20.831Z,99.99
2019-06-02T04:27:20.810Z,99.99
2019-06-02T04:28:20.783Z,99.99
2019-06-02T04:29:20.895Z,99.99
2019-06-02T04:30:20.737Z,99.99
2019-06-02T04:31:22.650Z,99.99
2019-06-02T04:32:20.705Z,99.99
2019-06-02T04:33:20.672Z,99.99
2019-06-02T04:34:20.644Z,99.99
2019-06-02T04:35:20.621Z,99.99
2019-06-02T04:36:20.600Z,99.99
2019-06-02T04:37:20.589Z,99.99
2019-06-02T04:38:20.549Z,99.99
2019-06-02T04:39:20.527Z,99.99
2019-06-02T04:40:20.505Z,99.99
2019-06-02T04:41:20.481Z,99.99
2019-06-02T04:42:20.456Z,99.99
2019-06-02T04:43:22.673Z,99.99
2019-06-02T04:44:20.412Z,99.99
2019-06-02T04:45:20.385Z,99.99
2019-06-02T04:46:20.368Z,99.99
2019-06-02T04:47:34.682Z,99.99
2019-06-02T04:48:20.317Z,99.99
2019-06-02T04:49:20.295Z,99.99
2019-06-02T04:50:20.271Z,99.99
2019-06-02T04:51:20.262Z,99.99
2019-06-02T04:52:20.226Z,99.99
2019-06-02T04:53:20.202Z,99.99
2019-06-02T04:54:20.179Z,99.99
2019-06-02T04:55:20.157Z,99.99
2019-06-02T04:56:20.131Z,99.99
2019-06-02T04:57:20.112Z,99.99
2019-06-02T04:58:20.086Z,99.99
2019-06-02T04:59:20.065Z,99.99
2019-06-02T05:00:20.042Z,99.99
2019-06-02T05:01:20.019Z,99.99
2019-06-02T05:02:19.998Z,99.99
2019-06-02T05:03:24.023Z,99.99
2019-06-02T05:04:19.951Z,99.99
2019-06-02T05:05:19.928Z,99.99
2019-06-02T05:06:19.913Z,99.99
2019-06-02T05:07:19.883Z,99.99
2019-06-02T05:08:19.864Z,99.99
2019-06-02T05:09:19.836Z,99.99
2019-06-02T05:10:19.815Z,99.99
2019-06-02T05:11:19.792Z,99.99
2019-06-02T05:12:19.771Z,99.99
2019-06-02T05:13:19.747Z,99.99
2019-06-02T05:14:19.726Z,99.99
2019-06-02T05:15:19.703Z,99.99
2019-06-02T05:16:19.696Z,99.99
2019-06-02T05:17:19.657Z,99.99
2019-06-02T05:18:19.639Z,99.99
2019-06-02T05:19:19.614Z,99.99
2019-06-02T05:20:19.592Z,99.99
2019-06-02T05:21:19.573Z,99.99
2019-06-02T05:22:19.545Z,99.99
2019-06-02T05:23:19.525Z,99.99
2019-06-02T05:24:19.501Z,99.99
2019-06-02T05:25:19.481Z,99.99
2019-06-02T05:26:19.459Z,99.99
2019-06-02T05:27:19.439Z,99.99
2019-06-02T05:28:19.418Z,99.40
2019-06-02T05:29:19.396Z,99.94
2019-06-02T05:30:19.377Z,96.31
2019-06-02T05:31:19.356Z,92.65
2019-06-02T05:32:19.337Z,90.85
2019-06-02T05:33:19.317Z,89.54
2019-06-02T05:34:19.298Z,87.13
2019-06-02T05:35:19.281Z,87.65
2019-06-02T05:36:19.261Z,86.44
2019-06-02T05:37:19.240Z,85.37
2019-06-02T05:38:19.224Z,85.37
2019-06-02T05:39:19.206Z,83.59
2019-06-02T05:40:19.269Z,83.73
2019-06-02T05:41:19.173Z,82.72
2019-06-02T05:42:19.164Z,83.44
2019-06-02T05:43:19.140Z,83.40
2019-06-02T05:44:19.122Z,83.53
2019-06-02T05:45:19.105Z,83.00
2019-06-02T05:46:19.090Z,80.22
2019-06-02T05:47:19.072Z,79.60
2019-06-02T05:48:19.057Z,81.45
2019-06-02T05:49:19.041Z,80.90
2019-06-02T05:50:19.027Z,79.35
2019-06-02T05:51:19.122Z,80.67
2019-06-02T05:52:18.994Z,80.52
2019-06-02T05:53:18.978Z,78.33
2019-06-02T05:54:18.962Z,77.72
2019-06-02T05:55:18.947Z,74.91
2019-06-02T05:56:18.971Z,74.65
2019-06-02T05:57:18.914Z,72.81
2019-06-02T05:58:18.902Z,72.75
2019-06-02T05:59:18.886Z,71.84
2019-06-02T06:00:18.872Z,72.33
2019-06-02T06:01:18.861Z,72.58
2019-06-02T06:02:18.843Z,74.29
2019-06-02T06:03:18.846Z,73.16
2019-06-02T06:04:18.815Z,72.71
2019-06-02T06:05:18.801Z,73.16
2019-06-02T06:06:18.787Z,73.71
2019-06-02T06:07:18.780Z,74.58
2019-06-02T06:08:18.763Z,75.90
2019-06-02T06:09:18.763Z,76.68
2019-06-02T06:10:18.733Z,75.07
2019-06-02T06:11:18.719Z,75.23
2019-06-02T06:12:18.705Z,74.68
2019-06-02T06:13:18.690Z,73.13
2019-06-02T06:14:18.676Z,73.84
2019-06-02T06:15:18.664Z,72.13
2019-06-02T06:16:18.659Z,71.20
2019-06-02T06:17:18.638Z,70.65
2019-06-02T06:18:29.788Z,69.87
2019-06-02T06:19:18.605Z,68.87
2019-06-02T06:20:18.593Z,67.44
2019-06-02T06:21:18.588Z,65.88
2019-06-02T06:22:18.567Z,66.17
2019-06-02T06:23:18.553Z,65.23
2019-06-02T06:24:18.540Z,65.17
2019-06-02T06:25:18.543Z,63.90
2019-06-02T06:26:18.520Z,64.00
2019-06-02T06:27:18.501Z,62.57
2019-06-02T06:28:18.489Z,62.35
2019-06-02T06:29:18.483Z,62.12
2019-06-02T06:30:18.465Z,62.47
2019-06-02T06:31:18.452Z,61.27
2019-06-02T06:32:18.443Z,61.50
2019-06-02T06:33:18.427Z,62.79
2019-06-02T06:34:18.415Z,60.75
2019-06-02T06:35:18.406Z,61.46
2019-06-02T06:36:18.392Z,59.31
2019-06-02T06:37:18.378Z,59.83
2019-06-02T06:38:18.407Z,58.40
2019-06-02T06:39:26.636Z,57.84
2019-06-02T06:40:18.345Z,57.49
2019-06-02T06:41:18.333Z,60.72
2019-06-02T06:42:18.322Z,61.83
2019-06-02T06:43:18.309Z,62.22
2019-06-02T06:44:18.302Z,62.12
2019-06-02T06:45:18.285Z,61.47
2019-06-02T06:46:18.275Z,60.69
2019-06-02T06:47:18.265Z,61.21
2019-06-02T06:48:18.253Z,60.65
2019-06-02T06:49:18.265Z,60.36
2019-06-02T06:50:18.230Z,60.55
2019-06-02T06:51:18.232Z,60.23
2019-06-02T06:52:18.207Z,60.42
2019-06-02T06:53:18.194Z,62.09
2019-06-02T06:54:18.187Z,62.51
2019-06-02T06:55:18.187Z,62.80
2019-06-02T06:56:18.161Z,61.76
2019-06-02T06:57:18.148Z,61.08
2019-06-02T06:58:18.137Z,60.82
2019-06-02T06:59:18.127Z,61.21
2019-06-02T07:00:18.115Z,61.01
2019-06-02T07:01:18.105Z,62.60
2019-06-02T07:02:18.091Z,62.73
2019-06-02T07:03:18.083Z,62.96
2019-06-02T07:04:18.118Z,64.62
2019-06-02T07:05:18.059Z,65.98
2019-06-02T07:06:18.051Z,68.15
2019-06-02T07:07:18.035Z,66.86
2019-06-02T07:08:18.028Z,67.24
2019-06-02T07:09:18.016Z,65.27
2019-06-02T07:10:18.008Z,64.78
2019-06-02T07:11:17.986Z,66.47
2019-06-02T07:12:17.976Z,65.98
2019-06-02T07:13:17.964Z,65.17
2019-06-02T07:14:17.951Z,65.59
2019-06-02T07:15:17.938Z,62.93
2019-06-02T07:16:17.938Z,63.81
2019-06-02T07:17:17.924Z,64.65
2019-06-02T07:18:17.902Z,63.71
2019-06-02T07:19:19.259Z,65.63
2019-06-02T07:20:17.877Z,66.79
2019-06-02T07:21:17.864Z,66.89
2019-06-02T07:22:17.851Z,67.11
2019-06-02T07:23:17.839Z,67.31
2019-06-02T07:24:17.867Z,68.41
2019-06-02T07:25:17.812Z,66.40
2019-06-02T07:26:17.800Z,64.29
2019-06-02T07:27:17.790Z,64.75
2019-06-02T07:28:17.775Z,63.35
2019-06-02T07:29:17.769Z,63.32
2019-06-02T07:30:17.748Z,65.17
2019-06-02T07:31:17.736Z,62.96
2019-06-02T07:32:17.723Z,63.26
2019-06-02T07:33:17.710Z,63.58
2019-06-02T07:34:17.699Z,63.35
2019-06-02T07:35:17.692Z,64.62
2019-06-02T07:36:17.674Z,61.69
2019-06-02T07:37:17.660Z,60.55
2019-06-02T07:38:17.646Z,60.19
2019-06-02T07:39:17.638Z,59.64
2019-06-02T07:40:17.621Z,60.85
2019-06-02T07:41:17.620Z,58.86
2019-06-02T07:42:17.598Z,57.49
2019-06-02T07:43:17.587Z,57.78
2019-06-02T07:44:17.574Z,57.03
2019-06-02T07:45:17.562Z,57.84
2019-06-02T07:46:17.555Z,56.64
2019-06-02T07:47:17.536Z,55.81
2019-06-02T07:48:17.529Z,55.26
2019-06-02T07:49:28.950Z,55.74
2019-06-02T07:50:17.503Z,55.35
2019-06-02T07:51:17.491Z,55.06
2019-06-02T07:52:17.481Z,55.57
2019-06-02T07:53:17.469Z,54.52
2019-06-02T07:54:17.457Z,55.57
2019-06-02T07:55:17.446Z,55.40
2019-06-02T07:56:17.437Z,55.10
2019-06-02T07:57:17.424Z,55.13
2019-06-02T07:58:17.415Z,57.11
2019-06-02T07:59:17.406Z,54.28
2019-06-02T08:00:17.392Z,56.65
2019-06-02T08:01:17.381Z,54.60
2019-06-02T08:02:17.381Z,54.83
2019-06-02T08:03:17.360Z,54.35
2019-06-02T08:04:17.350Z,55.47
2019-06-02T08:05:17.337Z,59.34
2019-06-02T08:06:18.773Z,60.62
2019-06-02T08:07:17.318Z,62.15
2019-06-02T08:08:17.308Z,62.48
2019-06-02T08:09:17.294Z,63.42
2019-06-02T08:10:17.285Z,63.62
2019-06-02T08:11:17.274Z,64.59
2019-06-02T08:12:17.264Z,63.90
2019-06-02T08:13:17.261Z,66.63
2019-06-02T08:14:17.239Z,66.05
2019-06-02T08:15:17.233Z,64.98
2019-06-02T08:16:17.215Z,64.29
2019-06-02T08:17:17.202Z,65.14
2019-06-02T08:18:17.193Z,64.62
2019-06-02T08:19:17.178Z,65.53
2019-06-02T08:20:20.785Z,65.33
2019-06-02T08:21:17.152Z,65.82
2019-06-02T08:22:17.142Z,66.02
2019-06-02T08:23:17.126Z,66.99
2019-06-02T08:24:18.944Z,67.47
2019-06-02T08:25:17.102Z,67.76
2019-06-02T08:26:17.088Z,68.19
2019-06-02T08:27:17.078Z,67.60
2019-06-02T08:28:17.064Z,65.30
2019-06-02T08:29:17.052Z,64.94
2019-06-02T08:30:17.038Z,63.02
2019-06-02T08:31:17.032Z,62.60
2019-06-02T08:32:17.011Z,62.05
2019-06-02T08:33:16.998Z,61.56
2019-06-02T08:34:16.986Z,62.02
2019-06-02T08:35:16.975Z,60.88
2019-06-02T08:36:16.963Z,61.30
2019-06-02T08:37:16.950Z,59.44
2019-06-02T08:38:16.937Z,59.01
2019-06-02T08:39:16.923Z,58.97
2019-06-02T08:40:16.911Z,54.77
2019-06-02T08:41:16.897Z,55.70
2019-06-02T08:42:16.889Z,52.79
2019-06-02T08:43:16.877Z,54.06
2019-06-02T08:44:16.865Z,52.17
2019-06-02T08:45:16.853Z,51.95
2019-06-02T08:46:16.841Z,53.62
2019-06-02T08:47:16.831Z,54.93
2019-06-02T08:48:16.831Z,56.99
2019-06-02T08:49:16.807Z,57.09
2019-06-02T08:50:19.728Z,54.74
2019-06-02T08:51:16.785Z,53.86
2019-06-02T08:52:29.143Z,56.01
2019-06-02T08:53:16.766Z,53.56
2019-06-02T08:54:16.751Z,53.44
2019-06-02T08:55:16.741Z,53.25
2019-06-02T08:56:16.729Z,54.25
2019-06-02T08:57:16.730Z,52.78
2019-06-02T08:58:17.338Z,55.40
2019-06-02T08:59:16.696Z,54.81
2019-06-02T09:00:16.700Z,52.98
2019-06-02T09:01:16.677Z,52.88
2019-06-02T09:02:16.664Z,52.78
2019-06-02T09:03:16.655Z,51.22
2019-06-02T09:04:16.643Z,52.32
2019-06-02T09:05:16.636Z,51.93
2019-06-02T09:06:16.620Z,51.39
2019-06-02T09:07:16.611Z,50.85
2019-06-02T09:08:16.605Z,48.99
2019-06-02T09:09:17.201Z,48.92
2019-06-02T09:10:20.912Z,48.82
2019-06-02T09:11:16.569Z,49.21
2019-06-02T09:12:16.798Z,49.51
2019-06-02T09:13:16.737Z,51.20
2019-06-02T09:14:16.923Z,50.78
2019-06-02T09:15:17.120Z,51.68
2019-06-02T09:16:16.519Z,49.85
2019-06-02T09:17:17.173Z,50.02
2019-06-02T09:18:16.496Z,50.02
2019-06-02T09:19:16.584Z,50.54
2019-06-02T09:20:31.438Z,50.32
2019-06-02T09:21:16.503Z,49.82
2019-06-02T09:22:16.458Z,49.11
2019-06-02T09:23:16.572Z,51.20
2019-06-02T09:24:16.437Z,50.49
2019-06-02T09:25:16.836Z,50.85
2019-06-02T09:26:16.415Z,52.51
2019-06-02T09:27:16.835Z,52.81
2019-06-02T09:28:16.395Z,52.76
2019-06-02T09:29:17.020Z,52.56
2019-06-02T09:30:16.423Z,52.76
2019-06-02T09:31:17.208Z,51.88
2019-06-02T09:32:16.352Z,52.20
2019-06-02T09:33:16.341Z,52.27
2019-06-02T09:34:16.332Z,51.78
2019-06-02T09:35:19.600Z,51.81
2019-06-02T09:36:16.325Z,52.20
2019-06-02T09:37:16.299Z,52.81
2019-06-02T09:38:16.331Z,49.99
2019-06-02T09:39:16.284Z,51.49
2019-06-02T09:40:16.267Z,50.15
2019-06-02T09:41:16.255Z,50.95
2019-06-02T09:42:16.246Z,49.41
2019-06-02T09:43:16.235Z,48.94
2019-06-02T09:44:19.779Z,48.30
2019-06-02T09:45:16.213Z,48.97
2019-06-02T09:46:16.204Z,48.82
2019-06-02T09:47:16.193Z,48.33
2019-06-02T09:48:16.415Z,48.16
2019-06-02T09:49:16.173Z,45.70
2019-06-02T09:50:16.168Z,45.90
2019-06-02T09:51:16.182Z,48.40
2019-06-02T09:52:16.142Z,44.89
2019-06-02T09:53:16.140Z,46.49
2019-06-02T09:54:16.126Z,47.08
2019-06-02T09:55:17.986Z,47.39
2019-06-02T09:56:16.139Z,45.73
2019-06-02T09:57:16.113Z,46.49
2019-06-02T09:58:17.969Z,47.45
2019-06-02T09:59:16.079Z,47.16
2019-06-02T10:00:21.868Z,47.20
2019-06-02T10:01:16.056Z,47.20
2019-06-02T10:02:16.111Z,48.92
2019-06-02T10:03:34.417Z,46.91
2019-06-02T10:04:16.164Z,45.95
2019-06-02T10:05:16.328Z,44.91
2019-06-02T10:06:18.805Z,42.47
2019-06-02T10:07:16.002Z,43.90
2019-06-02T10:08:16.475Z,44.87
2019-06-02T10:09:16.199Z,44.94
2019-06-02T10:10:16.593Z,44.60
2019-06-02T10:11:16.370Z,46.51
2019-06-02T10:12:16.481Z,47.06
2019-06-02T10:13:20.832Z,46.94
2019-06-02T10:14:16.685Z,48.03
2019-06-02T10:15:16.541Z,47.50
2019-06-02T10:16:16.475Z,48.41
2019-06-02T10:17:16.423Z,49.58
2019-06-02T10:18:16.717Z,47.11
2019-06-02T10:19:16.379Z,49.41
2019-06-02T10:20:16.675Z,48.18
2019-06-02T10:21:17.144Z,44.65
2019-06-02T10:22:16.316Z,44.98
2019-06-02T10:23:16.576Z,44.59
2019-06-02T10:24:18.165Z,45.83
2019-06-02T10:25:16.632Z,46.63
2019-06-02T10:26:16.552Z,46.85
2019-06-02T10:27:16.719Z,44.79
2019-06-02T10:28:16.718Z,45.50
2019-06-02T10:29:16.784Z,44.47
2019-06-02T10:30:17.014Z,45.21
2019-06-02T10:31:16.822Z,46.71
2019-06-02T10:32:17.091Z,44.23
2019-06-02T10:33:16.688Z,45.14
2019-06-02T10:34:16.840Z,45.24
2019-06-02T10:35:17.871Z,45.83
2019-06-02T10:36:16.993Z,45.83
2019-06-02T10:37:17.118Z,45.04
2019-06-02T10:38:15.723Z,45.28
2019-06-02T10:39:17.223Z,44.52
2019-06-02T10:40:15.703Z,45.16
2019-06-02T10:41:15.695Z,44.67
2019-06-02T10:42:15.687Z,44.65
2019-06-02T10:43:15.685Z,45.34
2019-06-02T10:44:15.673Z,45.41
2019-06-02T10:45:20.726Z,45.92
2019-06-02T10:46:15.651Z,44.45
2019-06-02T10:47:15.645Z,44.94
2019-06-02T10:48:15.801Z,45.02
2019-06-02T10:49:15.974Z,45.73
2019-06-02T10:50:27.519Z,45.83
2019-06-02T10:51:29.530Z,44.37
2019-06-02T10:52:15.726Z,44.30
2019-06-02T10:53:15.812Z,41.72
2019-06-02T10:54:20.078Z,42.86
2019-06-02T10:55:16.109Z,44.85
2019-06-02T10:56:16.396Z,45.03
2019-06-02T10:57:16.150Z,45.34
2019-06-02T10:58:16.798Z,45.54
2019-06-02T10:59:16.336Z,46.33
2019-06-02T11:00:17.211Z,47.30
2019-06-02T11:01:16.619Z,45.72
2019-06-02T11:02:16.760Z,46.03
2019-06-02T11:03:16.711Z,44.92
2019-06-02T11:04:16.777Z,44.92
2019-06-02T11:05:19.221Z,42.96
2019-06-02T11:06:16.752Z,42.27
2019-06-02T11:07:16.856Z,42.18
2019-06-02T11:08:15.469Z,42.82
2019-06-02T11:09:19.485Z,44.19
2019-06-02T11:10:15.432Z,43.15
2019-06-02T11:11:15.419Z,42.49
2019-06-02T11:12:15.408Z,41.92
2019-06-02T11:13:15.494Z,41.35
2019-06-02T11:14:15.448Z,41.78
2019-06-02T11:15:16.518Z,40.51
2019-06-02T11:16:15.749Z,40.23
2019-06-02T11:17:16.068Z,40.66
2019-06-02T11:18:16.092Z,38.99
2019-06-02T11:19:15.967Z,38.70
2019-06-02T11:20:16.043Z,38.38
2019-06-02T11:21:16.125Z,38.66
2019-06-02T11:22:16.252Z,39.21
2019-06-02T11:23:16.222Z,40.09
2019-06-02T11:24:16.278Z,39.92
2019-06-02T11:25:16.375Z,38.82
2019-06-02T11:26:16.571Z,39.60
2019-06-02T11:27:15.273Z,39.84
2019-06-02T11:28:16.427Z,38.44
2019-06-02T11:29:15.247Z,38.76
2019-06-02T11:30:15.237Z,38.46
2019-06-02T11:31:15.230Z,38.82
2019-06-02T11:32:15.218Z,39.00
2019-06-02T11:33:15.540Z,40.37
2019-06-02T11:34:15.201Z,39.98
2019-06-02T11:35:15.194Z,39.11
2019-06-02T11:36:15.842Z,39.31
2019-06-02T11:37:15.430Z,39.40
2019-06-02T11:38:15.747Z,39.03
2019-06-02T11:39:15.694Z,38.95
2019-06-02T11:40:15.860Z,37.87
2019-06-02T11:41:15.679Z,38.09
2019-06-02T11:42:16.038Z,37.99
2019-06-02T11:43:16.608Z,38.62
2019-06-02T11:44:16.462Z,38.74
2019-06-02T11:45:16.359Z,39.68
2019-06-02T11:46:16.180Z,39.29
2019-06-02T11:47:16.274Z,39.11
2019-06-02T11:48:16.455Z,39.62
2019-06-02T11:49:16.368Z,38.54
2019-06-02T11:50:15.051Z,39.58
2019-06-02T11:51:15.041Z,40.74
2019-06-02T11:52:15.501Z,40.17
2019-06-02T11:53:15.499Z,39.09
2019-06-02T11:54:15.859Z,38.50
2019-06-02T11:55:15.941Z,39.13
2019-06-02T11:56:16.121Z,38.13
2019-06-02T11:57:16.072Z,38.93
2019-06-02T11:58:16.511Z,38.74
2019-06-02T11:59:16.177Z,37.24
2019-06-02T12:00:16.388Z,37.82
2019-06-02T12:01:15.952Z,37.92
2019-06-02T12:02:14.936Z,38.03
2019-06-02T12:03:14.927Z,37.95
2019-06-02T12:04:14.920Z,37.74
2019-06-02T12:05:15.141Z,38.82
2019-06-02T12:06:16.030Z,39.42
2019-06-02T12:07:15.110Z,38.60
2019-06-02T12:08:16.746Z,38.80
2019-06-02T12:09:15.069Z,39.68
2019-06-02T12:10:16.266Z,40.33
2019-06-02T12:11:14.849Z,37.85
2019-06-02T12:12:16.454Z,37.63
2019-06-02T12:13:14.830Z,38.54
2019-06-02T12:14:15.547Z,38.68
2019-06-02T12:15:15.164Z,37.97
2019-06-02T12:16:15.557Z,38.46
2019-06-02T12:17:14.981Z,38.20
2019-06-02T12:18:14.783Z,37.22
2019-06-02T12:19:15.050Z,37.59
2019-06-02T12:20:15.031Z,38.38
2019-06-02T12:21:15.159Z,37.22
2019-06-02T12:22:17.077Z,37.32
2019-06-02T12:23:15.126Z,38.81
2019-06-02T12:24:15.166Z,36.07
2019-06-02T12:25:15.433Z,35.56
2019-06-02T12:26:15.313Z,36.43
2019-06-02T12:27:15.483Z,36.35
2019-06-02T12:28:15.440Z,35.56
2019-06-02T12:29:15.484Z,35.27
2019-06-02T12:30:18.329Z,36.35
2019-06-02T12:31:15.819Z,35.96
2019-06-02T12:32:15.821Z,36.22
2019-06-02T12:33:15.924Z,36.69
2019-06-02T12:34:15.981Z,36.61
2019-06-02T12:35:15.981Z,36.40
2019-06-02T12:36:15.867Z,37.07
2019-06-02T12:37:16.110Z,37.08
2019-06-02T12:38:15.873Z,37.69
2019-06-02T12:39:15.881Z,38.38
2019-06-02T12:40:14.577Z,36.47
2019-06-02T12:41:14.564Z,37.15
2019-06-02T12:42:14.556Z,37.63
2019-06-02T12:43:14.543Z,38.34
2019-06-02T12:44:14.535Z,38.34
2019-06-02T12:45:14.524Z,37.26
2019-06-02T12:46:18.085Z,37.77
2019-06-02T12:47:14.505Z,37.40
2019-06-02T12:48:14.504Z,36.33
2019-06-02T12:49:14.487Z,36.22
2019-06-02T12:50:14.475Z,36.22
2019-06-02T12:51:14.477Z,36.49
2019-06-02T12:52:32.905Z,36.40